sensor_id;sensor_type;location;lat;lon;timestamp;pressure;altitude;pressure_sealevel;temperature;humidity
35908;BME280;22003;50.320;8.054;2023-05-10T04:00:16;99038.22;;;11.99;100.00
35908;BME280;22003;50.320;8.054;2023-05-10T04:02:41;99027.72;;;12.07;100.00
35908;BME280;22003;50.320;8.054;2023-05-10T04:05:07;99031.25;;;11.98;100.00
35908;BME280;22003;50.320;8.054;2023-05-10T04:07:32;99038.56;;;11.77;100.00
35908;BME280;22003;50.320;8.054;2023-05-10T04:09:58;99036.38;;;11.72;100.00
35908;BME280;22003;50.320;8.054;2023-05-10T04:12:23;99026.84;;;11.70;100.00
35908;BME280;22003;50.320;8.054;2023-05-10T04:14:49;99034.53;;;11.73;100.00
35908;BME280;22003;50.320;8.054;2023-05-10T04:17:14;98979.03;;;11.42;100.00
35908;BME280;22003;50.320;8.054;2023-05-10T04:19:39;99023.13;;;11.62;100.00
35908;BME280;22003;50.320;8.054;2023-05-10T04:22:04;99028.13;;;11.66;100.00
35908;BME280;22003;50.320;8.054;2023-05-10T04:24:30;99008.31;;;11.60;100.00
35908;BME280;22003;50.320;8.054;2023-05-10T04:26:55;98992.09;;;11.73;100.00
35908;BME280;22003;50.320;8.054;2023-05-10T04:29:20;99020.13;;;11.85;100.00
35908;BME280;22003;50.320;8.054;2023-05-10T04:31:46;98998.06;;;11.75;100.00
35908;BME280;22003;50.320;8.054;2023-05-10T04:34:11;99047.31;;;12.06;100.00
35908;BME280;22003;50.320;8.054;2023-05-10T04:36:36;99028.81;;;11.77;100.00
35908;BME280;22003;50.320;8.054;2023-05-10T04:39:02;99026.31;;;11.66;100.00
35908;BME280;22003;50.320;8.054;2023-05-10T04:41:28;98998.84;;;11.48;100.00
35908;BME280;22003;50.320;8.054;2023-05-10T04:43:53;99023.94;;;11.63;100.00
35908;BME280;22003;50.320;8.054;2023-05-10T04:46:19;99045.06;;;12.11;100.00
35908;BME280;22003;50.320;8.054;2023-05-10T04:48:44;99044.50;;;12.08;100.00
35908;BME280;22003;50.320;8.054;2023-05-10T04:51:09;99051.69;;;12.25;100.00
35908;BME280;22003;50.320;8.054;2023-05-10T04:53:35;99056.56;;;12.30;100.00
35908;BME280;22003;50.320;8.054;2023-05-10T04:56:00;99060.59;;;12.34;100.00
35908;BME280;22003;50.320;8.054;2023-05-10T04:58:26;99066.38;;;12.47;100.00
35908;BME280;22003;50.320;8.054;2023-05-10T05:00:51;99056.31;;;12.51;100.00
35908;BME280;22003;50.320;8.054;2023-05-10T05:03:16;99066.56;;;12.63;100.00
35908;BME280;22003;50.320;8.054;2023-05-10T05:05:42;99065.28;;;12.50;100.00
35908;BME280;22003;50.320;8.054;2023-05-10T05:08:07;99072.38;;;12.49;100.00
35908;BME280;22003;50.320;8.054;2023-05-10T05:10:32;99022.91;;;12.21;100.00
35908;BME280;22003;50.320;8.054;2023-05-10T05:12:57;99079.38;;;12.50;100.00
35908;BME280;22003;50.320;8.054;2023-05-10T05:15:22;99078.94;;;12.55;100.00
35908;BME280;22003;50.320;8.054;2023-05-10T05:17:48;99086.91;;;12.55;100.00
35908;BME280;22003;50.320;8.054;2023-05-10T05:20:13;99087.56;;;12.66;100.00
35908;BME280;22003;50.320;8.054;2023-05-10T05:22:39;99038.44;;;12.43;100.00
35908;BME280;22003;50.320;8.054;2023-05-10T05:25:05;99072.53;;;12.48;100.00
35908;BME280;22003;50.320;8.054;2023-05-10T05:27:30;99098.50;;;12.81;100.00
35908;BME280;22003;50.320;8.054;2023-05-10T05:29:57;99099.13;;;12.65;100.00
35908;BME280;22003;50.320;8.054;2023-05-10T05:32:23;99093.38;;;12.70;100.00
35908;BME280;22003;50.320;8.054;2023-05-10T05:34:49;99089.22;;;12.67;100.00
35908;BME280;22003;50.320;8.054;2023-05-10T05:37:15;99040.75;;;12.56;100.00
35908;BME280;22003;50.320;8.054;2023-05-10T05:39:41;99099.59;;;12.88;100.00
35908;BME280;22003;50.320;8.054;2023-05-10T05:42:11;99105.75;;;12.89;100.00
35908;BME280;22003;50.320;8.054;2023-05-10T05:44:36;99066.72;;;12.62;100.00
35908;BME280;22003;50.320;8.054;2023-05-10T05:47:01;99104.03;;;12.88;100.00
35908;BME280;22003;50.320;8.054;2023-05-10T05:49:27;99057.63;;;12.64;100.00
35908;BME280;22003;50.320;8.054;2023-05-10T05:51:52;99094.41;;;12.87;100.00
35908;BME280;22003;50.320;8.054;2023-05-10T05:54:17;99096.56;;;13.01;100.00
35908;BME280;22003;50.320;8.054;2023-05-10T05:56:43;99105.09;;;13.23;100.00
35908;BME280;22003;50.320;8.054;2023-05-10T05:59:09;99105.94;;;13.23;100.00
35908;BME280;22003;50.320;8.054;2023-05-10T06:01:34;99105.97;;;13.49;100.00
35908;BME280;22003;50.320;8.054;2023-05-10T06:03:59;99110.94;;;13.62;100.00
35908;BME280;22003;50.320;8.054;2023-05-10T06:06:25;99108.03;;;13.73;100.00
35908;BME280;22003;50.320;8.054;2023-05-10T06:08:50;99103.38;;;13.75;100.00
35908;BME280;22003;50.320;8.054;2023-05-10T06:11:16;99105.94;;;13.85;100.00
35908;BME280;22003;50.320;8.054;2023-05-10T06:13:41;99081.59;;;14.06;100.00
35908;BME280;22003;50.320;8.054;2023-05-10T06:16:07;99104.94;;;14.12;100.00
35908;BME280;22003;50.320;8.054;2023-05-10T06:18:32;99108.16;;;14.23;100.00
35908;BME280;22003;50.320;8.054;2023-05-10T06:20:58;99070.22;;;13.95;100.00
35908;BME280;22003;50.320;8.054;2023-05-10T06:23:23;99107.31;;;13.89;100.00
35908;BME280;22003;50.320;8.054;2023-05-10T06:25:48;99112.72;;;13.79;100.00
35908;BME280;22003;50.320;8.054;2023-05-10T06:28:13;99113.00;;;13.76;100.00
35908;BME280;22003;50.320;8.054;2023-05-10T06:30:39;99048.38;;;13.40;100.00
35908;BME280;22003;50.320;8.054;2023-05-10T06:33:04;99069.75;;;13.74;100.00
35908;BME280;22003;50.320;8.054;2023-05-10T06:35:30;99124.41;;;14.12;100.00
35908;BME280;22003;50.320;8.054;2023-05-10T06:37:56;99122.75;;;14.11;100.00
35908;BME280;22003;50.320;8.054;2023-05-10T06:40:21;99130.63;;;14.47;100.00
35908;BME280;22003;50.320;8.054;2023-05-10T06:42:47;99124.50;;;14.29;100.00
35908;BME280;22003;50.320;8.054;2023-05-10T06:45:13;99131.69;;;14.28;100.00
35908;BME280;22003;50.320;8.054;2023-05-10T06:47:39;99087.13;;;14.12;100.00
35908;BME280;22003;50.320;8.054;2023-05-10T06:50:06;99125.66;;;14.52;100.00
35908;BME280;22003;50.320;8.054;2023-05-10T06:52:31;99134.00;;;14.57;100.00
35908;BME280;22003;50.320;8.054;2023-05-10T06:54:56;99138.50;;;14.57;100.00
35908;BME280;22003;50.320;8.054;2023-05-10T06:57:22;99110.09;;;14.39;100.00
35908;BME280;22003;50.320;8.054;2023-05-10T06:59:47;99142.38;;;14.62;100.00
35908;BME280;22003;50.320;8.054;2023-05-10T07:02:13;99147.88;;;14.61;100.00
35908;BME280;22003;50.320;8.054;2023-05-10T07:04:39;99147.44;;;14.47;100.00
35908;BME280;22003;50.320;8.054;2023-05-10T07:07:05;99138.75;;;14.71;100.00
35908;BME280;22003;50.320;8.054;2023-05-10T07:09:30;99144.25;;;14.78;100.00
35908;BME280;22003;50.320;8.054;2023-05-10T07:11:55;99152.94;;;14.80;100.00
35908;BME280;22003;50.320;8.054;2023-05-10T07:14:22;99154.06;;;14.69;99.51
35908;BME280;22003;50.320;8.054;2023-05-10T07:16:47;99153.41;;;14.75;100.00
35908;BME280;22003;50.320;8.054;2023-05-10T07:19:12;99142.16;;;14.30;100.00
35908;BME280;22003;50.320;8.054;2023-05-10T07:21:37;99160.47;;;14.50;100.00
35908;BME280;22003;50.320;8.054;2023-05-10T07:24:05;99165.06;;;14.74;100.00
35908;BME280;22003;50.320;8.054;2023-05-10T07:26:31;99136.19;;;14.62;99.36
35908;BME280;22003;50.320;8.054;2023-05-10T07:28:56;99163.97;;;14.93;97.48
35908;BME280;22003;50.320;8.054;2023-05-10T07:31:21;99171.72;;;15.13;97.77
35908;BME280;22003;50.320;8.054;2023-05-10T07:33:46;99173.31;;;14.97;97.43
35908;BME280;22003;50.320;8.054;2023-05-10T07:36:12;99170.88;;;15.20;96.34
35908;BME280;22003;50.320;8.054;2023-05-10T07:38:37;99167.50;;;15.02;96.59
35908;BME280;22003;50.320;8.054;2023-05-10T07:41:02;99167.56;;;15.18;95.15
35908;BME280;22003;50.320;8.054;2023-05-10T07:43:28;99186.41;;;15.25;94.09
35908;BME280;22003;50.320;8.054;2023-05-10T07:45:53;99186.41;;;15.25;96.28
35908;BME280;22003;50.320;8.054;2023-05-10T07:48:18;99186.69;;;15.05;96.34
35908;BME280;22003;50.320;8.054;2023-05-10T07:50:44;99190.84;;;15.00;97.08
35908;BME280;22003;50.320;8.054;2023-05-10T07:53:09;99180.53;;;15.13;95.48
35908;BME280;22003;50.320;8.054;2023-05-10T07:55:34;99155.00;;;14.60;96.66
35908;BME280;22003;50.320;8.054;2023-05-10T07:58:00;99189.78;;;14.50;96.10
35908;BME280;22003;50.320;8.054;2023-05-10T08:00:26;99172.28;;;14.48;97.34
35908;BME280;22003;50.320;8.054;2023-05-10T08:02:51;99203.03;;;15.02;95.75
35908;BME280;22003;50.320;8.054;2023-05-10T08:05:17;99137.16;;;14.52;95.42
35908;BME280;22003;50.320;8.054;2023-05-10T08:07:42;99205.69;;;15.02;94.30
35908;BME280;22003;50.320;8.054;2023-05-10T08:10:08;99147.06;;;14.68;96.79
35908;BME280;22003;50.320;8.054;2023-05-10T08:12:34;99212.91;;;14.76;97.05
35908;BME280;22003;50.320;8.054;2023-05-10T08:14:59;99210.50;;;14.65;97.86
35908;BME280;22003;50.320;8.054;2023-05-10T08:17:25;99204.06;;;14.75;98.63
35908;BME280;22003;50.320;8.054;2023-05-10T08:19:50;99153.22;;;14.43;97.75
35908;BME280;22003;50.320;8.054;2023-05-10T08:22:15;99201.59;;;14.82;97.48
35908;BME280;22003;50.320;8.054;2023-05-10T08:24:41;99209.28;;;15.36;96.44
35908;BME280;22003;50.320;8.054;2023-05-10T08:27:08;99191.59;;;15.35;92.86
35908;BME280;22003;50.320;8.054;2023-05-10T08:29:33;99213.41;;;15.72;93.61
35908;BME280;22003;50.320;8.054;2023-05-10T08:31:59;99214.06;;;15.91;93.46
35908;BME280;22003;50.320;8.054;2023-05-10T08:34:25;99181.19;;;15.90;91.88
35908;BME280;22003;50.320;8.054;2023-05-10T08:36:51;99208.72;;;16.15;94.20
35908;BME280;22003;50.320;8.054;2023-05-10T08:39:16;99180.72;;;16.58;93.29
35908;BME280;22003;50.320;8.054;2023-05-10T08:41:43;99210.78;;;16.85;89.72
35908;BME280;22003;50.320;8.054;2023-05-10T08:44:09;99211.91;;;16.91;90.91
35908;BME280;22003;50.320;8.054;2023-05-10T08:46:37;99184.72;;;17.10;89.87
35908;BME280;22003;50.320;8.054;2023-05-10T08:49:06;99203.66;;;17.39;84.46
35908;BME280;22003;50.320;8.054;2023-05-10T08:51:35;99204.13;;;17.43;85.23
35908;BME280;22003;50.320;8.054;2023-05-10T08:54:02;99217.19;;;17.69;87.32
35908;BME280;22003;50.320;8.054;2023-05-10T08:56:27;99210.50;;;17.73;84.51
35908;BME280;22003;50.320;8.054;2023-05-10T08:58:57;99208.81;;;17.41;83.25
35908;BME280;22003;50.320;8.054;2023-05-10T09:01:23;99220.13;;;16.81;85.78
35908;BME280;22003;50.320;8.054;2023-05-10T09:03:49;99183.50;;;17.21;86.26
35908;BME280;22003;50.320;8.054;2023-05-10T09:06:15;99195.22;;;16.88;85.19
35908;BME280;22003;50.320;8.054;2023-05-10T09:08:41;99215.25;;;16.93;86.16
35908;BME280;22003;50.320;8.054;2023-05-10T09:11:07;99185.22;;;16.74;86.96
35908;BME280;22003;50.320;8.054;2023-05-10T09:13:33;99224.59;;;17.05;88.61
35908;BME280;22003;50.320;8.054;2023-05-10T09:16:00;99220.41;;;17.02;86.69
35908;BME280;22003;50.320;8.054;2023-05-10T09:18:26;99228.84;;;17.22;86.12
35908;BME280;22003;50.320;8.054;2023-05-10T09:20:51;99220.75;;;16.99;85.66
35908;BME280;22003;50.320;8.054;2023-05-10T09:23:16;99225.19;;;17.15;84.25
35908;BME280;22003;50.320;8.054;2023-05-10T09:25:42;99216.19;;;16.60;84.95
35908;BME280;22003;50.320;8.054;2023-05-10T09:28:07;99233.22;;;16.43;86.24
35908;BME280;22003;50.320;8.054;2023-05-10T09:30:36;99191.00;;;15.65;90.07
35908;BME280;22003;50.320;8.054;2023-05-10T09:33:01;99179.97;;;15.52;88.47
35908;BME280;22003;50.320;8.054;2023-05-10T09:35:28;99233.94;;;16.13;88.82
35908;BME280;22003;50.320;8.054;2023-05-10T09:38:02;99231.75;;;16.41;87.48
35908;BME280;22003;50.320;8.054;2023-05-10T09:40:29;99247.75;;;16.73;85.57
35908;BME280;22003;50.320;8.054;2023-05-10T09:43:08;99234.56;;;16.47;85.34
35908;BME280;22003;50.320;8.054;2023-05-10T09:45:34;99233.44;;;15.93;86.41
35908;BME280;22003;50.320;8.054;2023-05-10T09:48:01;99239.78;;;16.24;87.62
35908;BME280;22003;50.320;8.054;2023-05-10T09:50:28;99236.78;;;16.11;85.02
35908;BME280;22003;50.320;8.054;2023-05-10T09:52:56;99236.78;;;16.11;84.76
35908;BME280;22003;50.320;8.054;2023-05-10T09:55:44;99243.94;;;16.35;83.82
35908;BME280;22003;50.320;8.054;2023-05-10T09:58:14;99252.09;;;16.66;83.08
35908;BME280;22003;50.320;8.054;2023-05-10T10:00:41;99240.63;;;16.33;82.43
35908;BME280;22003;50.320;8.054;2023-05-10T10:03:12;99247.75;;;16.73;82.08
35908;BME280;22003;50.320;8.054;2023-05-10T10:05:40;99236.09;;;16.33;82.07
35908;BME280;22003;50.320;8.054;2023-05-10T10:08:05;99243.94;;;16.35;81.40
35908;BME280;22003;50.320;8.054;2023-05-10T10:10:32;99253.97;;;15.92;83.71
35908;BME280;22003;50.320;8.054;2023-05-10T10:12:58;99255.63;;;16.42;83.14
35908;BME280;22003;50.320;8.054;2023-05-10T10:15:24;99262.66;;;16.35;83.07
35908;BME280;22003;50.320;8.054;2023-05-10T10:17:50;99216.41;;;16.02;82.20
35908;BME280;22003;50.320;8.054;2023-05-10T10:20:17;99258.16;;;16.27;83.51
35908;BME280;22003;50.320;8.054;2023-05-10T10:22:43;99265.28;;;16.76;83.73
35908;BME280;22003;50.320;8.054;2023-05-10T10:25:10;99267.59;;;16.87;81.07
35908;BME280;22003;50.320;8.054;2023-05-10T10:27:49;99255.47;;;16.35;81.14
35908;BME280;22003;50.320;8.054;2023-05-10T10:30:43;99269.53;;;16.21;83.58
35908;BME280;22003;50.320;8.054;2023-05-10T10:33:24;99270.09;;;16.97;82.19
35908;BME280;22003;50.320;8.054;2023-05-10T10:35:57;99265.44;;;17.30;80.13
35908;BME280;22003;50.320;8.054;2023-05-10T10:38:23;99270.16;;;16.72;80.34
35908;BME280;22003;50.320;8.054;2023-05-10T10:40:48;99216.94;;;16.94;80.43
35908;BME280;22003;50.320;8.054;2023-05-10T10:43:27;99274.34;;;16.42;79.98
35908;BME280;22003;50.320;8.054;2023-05-10T10:46:13;99262.66;;;16.51;80.75
35908;BME280;22003;50.320;8.054;2023-05-10T10:48:39;99267.16;;;16.43;80.52
35908;BME280;22003;50.320;8.054;2023-05-10T10:51:05;99263.97;;;16.55;80.66
35908;BME280;22003;50.320;8.054;2023-05-10T10:53:30;99271.84;;;16.24;81.58
35908;BME280;22003;50.320;8.054;2023-05-10T10:58:33;99257.31;;;16.19;80.31
35908;BME280;22003;50.320;8.054;2023-05-10T11:01:18;99275.38;;;16.33;80.36
35908;BME280;22003;50.320;8.054;2023-05-10T11:04:16;99286.97;;;16.97;79.69
35908;BME280;22003;50.320;8.054;2023-05-10T11:06:42;99273.09;;;17.41;77.18
35908;BME280;22003;50.320;8.054;2023-05-10T11:09:09;99276.28;;;17.76;76.96
35908;BME280;22003;50.320;8.054;2023-05-10T11:11:36;99268.00;;;17.85;74.61
35908;BME280;22003;50.320;8.054;2023-05-10T11:14:06;99274.41;;;17.76;75.72
35908;BME280;22003;50.320;8.054;2023-05-10T11:16:44;99241.94;;;17.71;73.67
35908;BME280;22003;50.320;8.054;2023-05-10T11:19:11;99262.47;;;17.56;73.36
35908;BME280;22003;50.320;8.054;2023-05-10T11:21:50;99273.44;;;17.69;73.42
35908;BME280;22003;50.320;8.054;2023-05-10T11:24:18;99264.06;;;17.65;73.33
35908;BME280;22003;50.320;8.054;2023-05-10T11:26:44;99262.34;;;17.80;74.24
35908;BME280;22003;50.320;8.054;2023-05-10T11:29:10;99263.13;;;17.89;74.24
35908;BME280;22003;50.320;8.054;2023-05-10T11:31:45;99255.78;;;18.29;71.89
35908;BME280;22003;50.320;8.054;2023-05-10T11:34:12;99264.47;;;18.31;71.15
35908;BME280;22003;50.320;8.054;2023-05-10T11:36:51;99254.06;;;18.13;70.47
35908;BME280;22003;50.320;8.054;2023-05-10T11:39:16;99266.66;;;17.89;71.59
35908;BME280;22003;50.320;8.054;2023-05-10T11:41:41;99270.63;;;17.62;72.98
35908;BME280;22003;50.320;8.054;2023-05-10T11:44:08;99277.34;;;17.58;73.12
35908;BME280;22003;50.320;8.054;2023-05-10T11:46:36;99237.94;;;17.75;74.19
35908;BME280;22003;50.320;8.054;2023-05-10T11:49:01;99219.50;;;18.18;70.74
35908;BME280;22003;50.320;8.054;2023-05-10T11:51:29;99273.13;;;18.18;71.38
35908;BME280;22003;50.320;8.054;2023-05-10T11:53:56;99269.94;;;18.37;71.48
35908;BME280;22003;50.320;8.054;2023-05-10T11:56:21;99274.16;;;18.55;69.61
35908;BME280;22003;50.320;8.054;2023-05-10T11:58:57;99276.84;;;18.55;69.29
35908;BME280;22003;50.320;8.054;2023-05-10T12:01:24;99275.44;;;18.21;68.55
35908;BME280;22003;50.320;8.054;2023-05-10T12:03:51;99282.81;;;18.42;69.16
35908;BME280;22003;50.320;8.054;2023-05-10T12:06:18;99282.91;;;18.48;70.92
35908;BME280;22003;50.320;8.054;2023-05-10T12:08:46;99267.88;;;18.25;67.64
35908;BME280;22003;50.320;8.054;2023-05-10T12:11:12;99273.44;;;18.23;67.87
35908;BME280;22003;50.320;8.054;2023-05-10T12:13:43;99267.44;;;18.36;66.82
35908;BME280;22003;50.320;8.054;2023-05-10T12:16:19;99265.38;;;18.61;67.82
35908;BME280;22003;50.320;8.054;2023-05-10T12:18:45;99264.44;;;19.42;65.31
35908;BME280;22003;50.320;8.054;2023-05-10T12:21:11;99268.56;;;19.74;64.75
35908;BME280;22003;50.320;8.054;2023-05-10T12:23:37;99265.00;;;19.67;64.67
35908;BME280;22003;50.320;8.054;2023-05-10T12:26:03;99265.13;;;19.81;63.78
35908;BME280;22003;50.320;8.054;2023-05-10T12:28:32;99269.41;;;20.18;62.54
35908;BME280;22003;50.320;8.054;2023-05-10T12:31:01;99271.81;;;20.49;60.65
35908;BME280;22003;50.320;8.054;2023-05-10T12:33:35;99272.97;;;19.61;62.67
35908;BME280;22003;50.320;8.054;2023-05-10T12:36:02;99261.41;;;19.45;63.65
35908;BME280;22003;50.320;8.054;2023-05-10T12:41:01;99280.16;;;19.75;62.35
35908;BME280;22003;50.320;8.054;2023-05-10T12:43:27;99282.06;;;19.45;63.54
35908;BME280;22003;50.320;8.054;2023-05-10T12:45:53;99274.75;;;19.24;66.68
35908;BME280;22003;50.320;8.054;2023-05-10T12:48:18;99289.47;;;18.69;65.40
35908;BME280;22003;50.320;8.054;2023-05-10T12:50:43;99288.78;;;18.29;65.71
35908;BME280;22003;50.320;8.054;2023-05-10T12:53:09;99303.06;;;18.67;67.29
35908;BME280;22003;50.320;8.054;2023-05-10T12:55:34;99291.22;;;17.93;67.16
35908;BME280;22003;50.320;8.054;2023-05-10T12:57:59;99311.06;;;17.84;69.17
35908;BME280;22003;50.320;8.054;2023-05-10T13:00:25;99312.00;;;17.21;71.71
35908;BME280;22003;50.320;8.054;2023-05-10T13:02:50;99303.41;;;16.53;73.56
35908;BME280;22003;50.320;8.054;2023-05-10T13:05:15;99315.13;;;16.36;76.25
35908;BME280;22003;50.320;8.054;2023-05-10T13:07:40;99305.44;;;16.10;75.70
35908;BME280;22003;50.320;8.054;2023-05-10T13:10:06;99274.53;;;16.00;76.76
35908;BME280;22003;50.320;8.054;2023-05-10T13:12:31;99307.25;;;16.26;76.39
35908;BME280;22003;50.320;8.054;2023-05-10T13:14:57;99176.56;;;15.25;77.98
35908;BME280;22003;50.320;8.054;2023-05-10T13:17:22;99303.22;;;15.90;78.37
35908;BME280;22003;50.320;8.054;2023-05-10T13:19:47;99319.94;;;16.08;79.68
35908;BME280;22003;50.320;8.054;2023-05-10T13:22:13;99281.69;;;15.91;80.20
35908;BME280;22003;50.320;8.054;2023-05-10T13:24:38;99326.63;;;16.20;80.62
35908;BME280;22003;50.320;8.054;2023-05-10T13:27:03;99326.28;;;16.07;81.90
35908;BME280;22003;50.320;8.054;2023-05-10T13:29:28;99330.69;;;16.32;81.37
35908;BME280;22003;50.320;8.054;2023-05-10T13:31:53;99290.41;;;16.34;78.94
35908;BME280;22003;50.320;8.054;2023-05-10T13:34:19;99321.13;;;16.95;78.08
35908;BME280;22003;50.320;8.054;2023-05-10T13:36:46;99329.28;;;17.02;78.46
35908;BME280;22003;50.320;8.054;2023-05-10T13:39:11;99327.47;;;16.86;78.58
35908;BME280;22003;50.320;8.054;2023-05-10T13:41:37;99317.47;;;16.80;78.62
35908;BME280;22003;50.320;8.054;2023-05-10T13:44:02;99323.97;;;16.61;78.90
35908;BME280;22003;50.320;8.054;2023-05-10T13:46:28;99310.59;;;16.69;79.09
35908;BME280;22003;50.320;8.054;2023-05-10T13:48:54;99318.63;;;16.45;78.52
35908;BME280;22003;50.320;8.054;2023-05-10T13:51:19;99272.00;;;15.98;78.47
35908;BME280;22003;50.320;8.054;2023-05-10T13:53:45;99318.97;;;16.50;79.27
35908;BME280;22003;50.320;8.054;2023-05-10T13:56:12;99321.00;;;16.72;77.98
35908;BME280;22003;50.320;8.054;2023-05-10T13:58:37;99290.34;;;16.99;77.15
35908;BME280;22003;50.320;8.054;2023-05-10T14:01:02;99324.47;;;17.36;75.76
35908;BME280;22003;50.320;8.054;2023-05-10T14:03:29;99312.94;;;17.36;74.35
35908;BME280;22003;50.320;8.054;2023-05-10T14:05:55;99305.03;;;17.42;74.73
35908;BME280;22003;50.320;8.054;2023-05-10T14:08:20;99314.91;;;17.50;75.95
35908;BME280;22003;50.320;8.054;2023-05-10T14:10:45;99305.50;;;17.93;75.25
35908;BME280;22003;50.320;8.054;2023-05-10T14:13:11;99304.66;;;18.16;72.15
35908;BME280;22003;50.320;8.054;2023-05-10T14:15:37;99295.88;;;18.60;71.59
35908;BME280;22003;50.320;8.054;2023-05-10T14:18:02;99268.38;;;18.43;70.07
35908;BME280;22003;50.320;8.054;2023-05-10T14:20:28;99302.69;;;18.33;69.65
35908;BME280;22003;50.320;8.054;2023-05-10T14:22:54;99307.97;;;18.18;68.98
35908;BME280;22003;50.320;8.054;2023-05-10T14:25:19;99298.44;;;17.92;70.05
35908;BME280;22003;50.320;8.054;2023-05-10T14:27:44;99262.25;;;17.34;72.05
35908;BME280;22003;50.320;8.054;2023-05-10T14:30:10;99284.84;;;17.32;73.26
35908;BME280;22003;50.320;8.054;2023-05-10T14:32:35;99257.44;;;16.82;72.99
35908;BME280;22003;50.320;8.054;2023-05-10T14:35:02;99304.13;;;17.27;74.58
35908;BME280;22003;50.320;8.054;2023-05-10T14:37:27;99306.38;;;17.47;73.12
35908;BME280;22003;50.320;8.054;2023-05-10T14:39:52;99299.06;;;17.72;71.65
35908;BME280;22003;50.320;8.054;2023-05-10T14:42:17;99303.03;;;18.07;72.15
35908;BME280;22003;50.320;8.054;2023-05-10T14:44:43;99292.94;;;18.32;71.11
35908;BME280;22003;50.320;8.054;2023-05-10T14:47:08;99297.00;;;18.51;71.96
35908;BME280;22003;50.320;8.054;2023-05-10T14:49:33;99298.44;;;18.38;71.90
35908;BME280;22003;50.320;8.054;2023-05-10T14:51:59;99294.75;;;18.39;70.65
35908;BME280;22003;50.320;8.054;2023-05-10T14:54:24;99293.34;;;18.06;69.66
35908;BME280;22003;50.320;8.054;2023-05-10T14:56:49;99296.13;;;18.35;69.60
35908;BME280;22003;50.320;8.054;2023-05-10T14:59:15;99298.44;;;18.15;70.30
35908;BME280;22003;50.320;8.054;2023-05-10T15:01:40;99294.19;;;18.21;70.42
35908;BME280;22003;50.320;8.054;2023-05-10T15:04:07;99249.63;;;17.43;69.22
35908;BME280;22003;50.320;8.054;2023-05-10T15:06:35;99257.97;;;18.10;71.07
35908;BME280;22003;50.320;8.054;2023-05-10T15:09:01;99289.88;;;18.58;70.78
35908;BME280;22003;50.320;8.054;2023-05-10T15:11:26;99245.63;;;18.91;68.08
35908;BME280;22003;50.320;8.054;2023-05-10T15:13:52;99293.00;;;19.14;65.20
35908;BME280;22003;50.320;8.054;2023-05-10T15:16:17;99287.63;;;19.14;65.17
35908;BME280;22003;50.320;8.054;2023-05-10T15:18:42;99291.97;;;18.33;69.14
35908;BME280;22003;50.320;8.054;2023-05-10T15:21:07;99299.50;;;18.29;70.45
35908;BME280;22003;50.320;8.054;2023-05-10T15:23:33;99297.31;;;18.10;73.06
35908;BME280;22003;50.320;8.054;2023-05-10T15:26:00;99297.91;;;18.20;70.35
35908;BME280;22003;50.320;8.054;2023-05-10T15:28:25;99294.09;;;18.75;70.46
35908;BME280;22003;50.320;8.054;2023-05-10T15:30:50;99292.09;;;18.77;73.32
35908;BME280;22003;50.320;8.054;2023-05-10T15:33:16;99292.06;;;18.92;70.28
35908;BME280;22003;50.320;8.054;2023-05-10T15:35:41;99305.03;;;17.82;74.69
35908;BME280;22003;50.320;8.054;2023-05-10T15:38:06;99305.28;;;17.33;76.94
35908;BME280;22003;50.320;8.054;2023-05-10T15:40:32;99313.50;;;17.23;77.98
35908;BME280;22003;50.320;8.054;2023-05-10T15:42:57;99299.09;;;17.63;77.00
35908;BME280;22003;50.320;8.054;2023-05-10T15:45:22;99303.56;;;18.25;75.50
35908;BME280;22003;50.320;8.054;2023-05-10T15:47:47;99301.25;;;18.60;73.86
35908;BME280;22003;50.320;8.054;2023-05-10T15:50:14;99299.66;;;18.73;74.06
35908;BME280;22003;50.320;8.054;2023-05-10T15:52:39;99309.75;;;18.03;77.46
35908;BME280;22003;50.320;8.054;2023-05-10T15:55:05;99278.13;;;17.75;75.42
35908;BME280;22003;50.320;8.054;2023-05-10T15:57:36;99303.44;;;18.18;75.15
35908;BME280;22003;50.320;8.054;2023-05-10T16:00:02;99304.88;;;17.83;75.14
35908;BME280;22003;50.320;8.054;2023-05-10T16:02:27;99313.84;;;17.20;78.13
35908;BME280;22003;50.320;8.054;2023-05-10T16:04:53;99308.00;;;17.56;76.40
35908;BME280;22003;50.320;8.054;2023-05-10T16:07:18;99304.25;;;17.65;72.76
35908;BME280;22003;50.320;8.054;2023-05-10T16:09:43;99302.50;;;17.88;72.17
35908;BME280;22003;50.320;8.054;2023-05-10T16:12:09;99264.91;;;18.19;70.30
35908;BME280;22003;50.320;8.054;2023-05-10T16:14:34;99314.25;;;18.71;70.68
35908;BME280;22003;50.320;8.054;2023-05-10T16:16:59;99307.56;;;18.67;70.68
35908;BME280;22003;50.320;8.054;2023-05-10T16:19:25;99291.59;;;18.13;72.95
35908;BME280;22003;50.320;8.054;2023-05-10T16:21:51;99317.53;;;18.58;70.55
35908;BME280;22003;50.320;8.054;2023-05-10T16:24:16;99319.38;;;18.81;69.76
35908;BME280;22003;50.320;8.054;2023-05-10T16:26:41;99281.63;;;18.44;69.13
35908;BME280;22003;50.320;8.054;2023-05-10T16:29:07;99321.63;;;18.08;72.73
35908;BME280;22003;50.320;8.054;2023-05-10T16:31:32;99324.59;;;18.13;74.80
35908;BME280;22003;50.320;8.054;2023-05-10T16:33:58;99317.66;;;18.27;73.37
35908;BME280;22003;50.320;8.054;2023-05-10T16:36:23;99328.28;;;17.89;74.47
35908;BME280;22003;50.320;8.054;2023-05-10T16:38:48;99321.81;;;18.07;70.42
35908;BME280;22003;50.320;8.054;2023-05-10T16:41:13;99319.56;;;17.56;73.14
35908;BME280;22003;50.320;8.054;2023-05-10T16:43:39;99329.22;;;18.42;71.38
35908;BME280;22003;50.320;8.054;2023-05-10T16:46:09;99293.75;;;17.24;72.58
35908;BME280;22003;50.320;8.054;2023-05-10T16:48:34;99327.75;;;17.94;72.44
35908;BME280;22003;50.320;8.054;2023-05-10T16:51:01;99337.47;;;17.56;73.43
35908;BME280;22003;50.320;8.054;2023-05-10T16:53:26;99339.44;;;17.62;74.75
35908;BME280;22003;50.320;8.054;2023-05-10T16:55:52;99329.16;;;17.42;71.76
35908;BME280;22003;50.320;8.054;2023-05-10T16:58:18;99344.50;;;17.01;76.62